sensor_id;sensor_type;location;lat;lon;timestamp;temperature;humidity
2729;DHT22;1372;47.956;7.830;2023-07-24T00:02:05;19.20;99.90
2729;DHT22;1372;47.956;7.830;2023-07-24T00:04:35;19.20;99.90
2729;DHT22;1372;47.956;7.830;2023-07-24T00:07:07;19.20;99.90
2729;DHT22;1372;47.956;7.830;2023-07-24T00:09:36;19.20;99.90
2729;DHT22;1372;47.956;7.830;2023-07-24T00:12:06;19.20;99.90
2729;DHT22;1372;47.956;7.830;2023-07-24T00:14:38;19.20;99.90
2729;DHT22;1372;47.956;7.830;2023-07-24T00:17:07;19.10;99.90
2729;DHT22;1372;47.956;7.830;2023-07-24T00:19:37;19.10;99.90
2729;DHT22;1372;47.956;7.830;2023-07-24T00:22:08;19.10;99.90
2729;DHT22;1372;47.956;7.830;2023-07-24T00:24:37;19.00;99.90
2729;DHT22;1372;47.956;7.830;2023-07-24T00:27:06;19.00;99.90
2729;DHT22;1372;47.956;7.830;2023-07-24T00:29:35;19.00;99.90
2729;DHT22;1372;47.956;7.830;2023-07-24T00:32:05;19.00;99.90
2729;DHT22;1372;47.956;7.830;2023-07-24T00:34:38;19.00;99.90
2729;DHT22;1372;47.956;7.830;2023-07-24T00:37:07;19.10;99.90
2729;DHT22;1372;47.956;7.830;2023-07-24T00:39:38;19.20;99.90
2729;DHT22;1372;47.956;7.830;2023-07-24T00:42:09;19.20;99.90
2729;DHT22;1372;47.956;7.830;2023-07-24T00:44:38;19.20;99.90
2729;DHT22;1372;47.956;7.830;2023-07-24T00:47:07;19.20;99.90
2729;DHT22;1372;47.956;7.830;2023-07-24T00:49:37;19.10;99.90
2729;DHT22;1372;47.956;7.830;2023-07-24T00:52:07;19.10;99.90
2729;DHT22;1372;47.956;7.830;2023-07-24T00:54:36;19.10;99.90
2729;DHT22;1372;47.956;7.830;2023-07-24T00:57:06;19.00;99.90
2729;DHT22;1372;47.956;7.830;2023-07-24T00:59:35;19.00;99.90
2729;DHT22;1372;47.956;7.830;2023-07-24T01:02:05;19.10;99.90
2729;DHT22;1372;47.956;7.830;2023-07-24T01:04:34;19.00;99.90
2729;DHT22;1372;47.956;7.830;2023-07-24T01:07:05;19.00;99.90
2729;DHT22;1372;47.956;7.830;2023-07-24T01:09:34;19.00;99.90
2729;DHT22;1372;47.956;7.830;2023-07-24T01:12:08;18.90;99.90
2729;DHT22;1372;47.956;7.830;2023-07-24T01:14:44;18.80;99.90
2729;DHT22;1372;47.956;7.830;2023-07-24T01:17:19;18.80;99.90
2729;DHT22;1372;47.956;7.830;2023-07-24T01:19:54;18.80;99.90
2729;DHT22;1372;47.956;7.830;2023-07-24T01:22:43;18.90;99.90
2729;DHT22;1372;47.956;7.830;2023-07-24T01:25:23;18.90;99.90
2729;DHT22;1372;47.956;7.830;2023-07-24T01:27:58;18.90;99.90
2729;DHT22;1372;47.956;7.830;2023-07-24T01:30:30;18.80;99.90
2729;DHT22;1372;47.956;7.830;2023-07-24T01:32:59;18.80;99.90
2729;DHT22;1372;47.956;7.830;2023-07-24T01:35:29;18.80;99.90
2729;DHT22;1372;47.956;7.830;2023-07-24T01:38:00;18.80;99.90
2729;DHT22;1372;47.956;7.830;2023-07-24T01:40:31;18.70;99.90
2729;DHT22;1372;47.956;7.830;2023-07-24T01:43:01;18.80;99.90
2729;DHT22;1372;47.956;7.830;2023-07-24T01:45:31;18.80;99.90
2729;DHT22;1372;47.956;7.830;2023-07-24T01:48:03;18.80;99.90
2729;DHT22;1372;47.956;7.830;2023-07-24T01:50:34;18.80;99.90
2729;DHT22;1372;47.956;7.830;2023-07-24T01:53:05;18.80;99.90
2729;DHT22;1372;47.956;7.830;2023-07-24T01:55:34;18.80;99.90
2729;DHT22;1372;47.956;7.830;2023-07-24T01:58:05;18.70;99.90
2729;DHT22;1372;47.956;7.830;2023-07-24T02:00:34;18.70;99.90
2729;DHT22;1372;47.956;7.830;2023-07-24T02:03:03;18.70;99.90
2729;DHT22;1372;47.956;7.830;2023-07-24T02:05:36;18.80;99.90
2729;DHT22;1372;47.956;7.830;2023-07-24T02:08:04;18.70;99.90
2729;DHT22;1372;47.956;7.830;2023-07-24T02:10:36;18.70;99.90
2729;DHT22;1372;47.956;7.830;2023-07-24T02:13:07;18.70;99.90
2729;DHT22;1372;47.956;7.830;2023-07-24T02:15:36;18.60;99.90
2729;DHT22;1372;47.956;7.830;2023-07-24T02:18:05;18.70;99.90
2729;DHT22;1372;47.956;7.830;2023-07-24T02:20:34;18.70;99.90
2729;DHT22;1372;47.956;7.830;2023-07-24T02:23:05;18.70;99.90
2729;DHT22;1372;47.956;7.830;2023-07-24T02:25:35;18.60;99.90
2729;DHT22;1372;47.956;7.830;2023-07-24T02:28:04;18.60;99.90
2729;DHT22;1372;47.956;7.830;2023-07-24T02:30:37;18.60;99.90
2729;DHT22;1372;47.956;7.830;2023-07-24T02:33:07;18.60;99.90
2729;DHT22;1372;47.956;7.830;2023-07-24T02:35:38;18.60;99.90
2729;DHT22;1372;47.956;7.830;2023-07-24T02:38:08;18.60;99.90
2729;DHT22;1372;47.956;7.830;2023-07-24T02:40:37;18.60;99.90
2729;DHT22;1372;47.956;7.830;2023-07-24T02:43:05;18.70;99.90
2729;DHT22;1372;47.956;7.830;2023-07-24T02:45:36;18.70;99.90
2729;DHT22;1372;47.956;7.830;2023-07-24T02:48:05;18.70;99.90
2729;DHT22;1372;47.956;7.830;2023-07-24T02:50:34;18.70;99.90
2729;DHT22;1372;47.956;7.830;2023-07-24T02:53:03;18.70;99.90
2729;DHT22;1372;47.956;7.830;2023-07-24T02:55:32;18.70;99.90
2729;DHT22;1372;47.956;7.830;2023-07-24T02:58:01;18.70;99.90
2729;DHT22;1372;47.956;7.830;2023-07-24T03:00:31;18.70;99.90
2729;DHT22;1372;47.956;7.830;2023-07-24T03:03:02;18.70;99.90
2729;DHT22;1372;47.956;7.830;2023-07-24T03:05:34;18.70;99.90
2729;DHT22;1372;47.956;7.830;2023-07-24T03:08:03;18.60;99.90
2729;DHT22;1372;47.956;7.830;2023-07-24T03:10:32;18.60;99.90
2729;DHT22;1372;47.956;7.830;2023-07-24T03:13:01;18.60;99.90
2729;DHT22;1372;47.956;7.830;2023-07-24T03:15:30;18.70;99.90
2729;DHT22;1372;47.956;7.830;2023-07-24T03:17:59;18.70;99.90
2729;DHT22;1372;47.956;7.830;2023-07-24T03:20:29;18.60;99.90
2729;DHT22;1372;47.956;7.830;2023-07-24T03:23:00;18.60;99.90
2729;DHT22;1372;47.956;7.830;2023-07-24T03:25:29;18.70;99.90
2729;DHT22;1372;47.956;7.830;2023-07-24T03:28:02;18.70;99.90
2729;DHT22;1372;47.956;7.830;2023-07-24T03:30:31;18.70;99.90
2729;DHT22;1372;47.956;7.830;2023-07-24T03:33:01;18.70;99.90
2729;DHT22;1372;47.956;7.830;2023-07-24T03:35:34;18.70;99.90
2729;DHT22;1372;47.956;7.830;2023-07-24T03:38:03;18.70;99.90
2729;DHT22;1372;47.956;7.830;2023-07-24T03:40:33;18.80;99.90
2729;DHT22;1372;47.956;7.830;2023-07-24T03:43:02;18.80;99.90
2729;DHT22;1372;47.956;7.830;2023-07-24T03:45:31;18.90;99.90
2729;DHT22;1372;47.956;7.830;2023-07-24T03:48:00;18.90;99.90
2729;DHT22;1372;47.956;7.830;2023-07-24T03:50:29;18.90;99.90
2729;DHT22;1372;47.956;7.830;2023-07-24T03:53:00;18.90;99.90
2729;DHT22;1372;47.956;7.830;2023-07-24T03:55:31;18.90;99.90
2729;DHT22;1372;47.956;7.830;2023-07-24T03:58:00;18.80;99.90
2729;DHT22;1372;47.956;7.830;2023-07-24T04:00:29;18.90;99.90
2729;DHT22;1372;47.956;7.830;2023-07-24T04:02:57;18.90;99.90
2729;DHT22;1372;47.956;7.830;2023-07-24T04:05:26;18.90;99.90
2729;DHT22;1372;47.956;7.830;2023-07-24T04:07:55;19.00;99.90
2729;DHT22;1372;47.956;7.830;2023-07-24T04:10:25;19.00;99.90
2729;DHT22;1372;47.956;7.830;2023-07-24T04:12:54;19.00;99.90
2729;DHT22;1372;47.956;7.830;2023-07-24T04:15:24;19.00;99.90
2729;DHT22;1372;47.956;7.830;2023-07-24T04:17:53;18.90;99.90
2729;DHT22;1372;47.956;7.830;2023-07-24T04:20:22;18.80;99.90
2729;DHT22;1372;47.956;7.830;2023-07-24T04:22:54;18.90;99.90
2729;DHT22;1372;47.956;7.830;2023-07-24T04:25:25;18.90;99.90
2729;DHT22;1372;47.956;7.830;2023-07-24T04:27:54;18.90;99.90
2729;DHT22;1372;47.956;7.830;2023-07-24T04:30:23;18.90;99.90
2729;DHT22;1372;47.956;7.830;2023-07-24T04:32:52;19.00;99.90
2729;DHT22;1372;47.956;7.830;2023-07-24T04:35:21;19.20;99.90
2729;DHT22;1372;47.956;7.830;2023-07-24T04:37:50;19.30;99.90
2729;DHT22;1372;47.956;7.830;2023-07-24T04:40:21;19.40;99.90
2729;DHT22;1372;47.956;7.830;2023-07-24T04:42:51;19.50;99.90
2729;DHT22;1372;47.956;7.830;2023-07-24T04:45:20;19.60;99.90
2729;DHT22;1372;47.956;7.830;2023-07-24T04:47:50;19.70;99.90
2729;DHT22;1372;47.956;7.830;2023-07-24T04:50:19;19.80;99.90
2729;DHT22;1372;47.956;7.830;2023-07-24T04:52:48;19.80;99.90
2729;DHT22;1372;47.956;7.830;2023-07-24T04:55:17;19.80;99.90
2729;DHT22;1372;47.956;7.830;2023-07-24T04:57:46;19.80;99.90
2729;DHT22;1372;47.956;7.830;2023-07-24T05:00:17;19.90;99.90
2729;DHT22;1372;47.956;7.830;2023-07-24T05:02:46;19.90;99.90
2729;DHT22;1372;47.956;7.830;2023-07-24T05:05:17;20.00;99.90
2729;DHT22;1372;47.956;7.830;2023-07-24T05:07:46;20.10;99.90
2729;DHT22;1372;47.956;7.830;2023-07-24T05:10:17;20.20;99.90
2729;DHT22;1372;47.956;7.830;2023-07-24T05:12:51;20.30;99.90
2729;DHT22;1372;47.956;7.830;2023-07-24T05:15:25;20.40;99.90
2729;DHT22;1372;47.956;7.830;2023-07-24T05:17:55;20.40;99.90
2729;DHT22;1372;47.956;7.830;2023-07-24T05:20:26;20.40;99.90
2729;DHT22;1372;47.956;7.830;2023-07-24T05:22:55;20.30;99.90
2729;DHT22;1372;47.956;7.830;2023-07-24T05:25:24;20.30;99.90
2729;DHT22;1372;47.956;7.830;2023-07-24T05:27:53;20.30;99.90
2729;DHT22;1372;47.956;7.830;2023-07-24T05:30:22;20.20;99.90
2729;DHT22;1372;47.956;7.830;2023-07-24T05:32:52;20.20;99.90
2729;DHT22;1372;47.956;7.830;2023-07-24T05:35:23;20.20;99.90
2729;DHT22;1372;47.956;7.830;2023-07-24T05:37:52;20.10;99.90
2729;DHT22;1372;47.956;7.830;2023-07-24T05:40:21;20.10;99.90
2729;DHT22;1372;47.956;7.830;2023-07-24T05:42:50;20.00;99.90
2729;DHT22;1372;47.956;7.830;2023-07-24T05:45:19;20.00;99.90
2729;DHT22;1372;47.956;7.830;2023-07-24T05:47:48;20.00;99.90
2729;DHT22;1372;47.956;7.830;2023-07-24T05:50:19;20.00;99.90
2729;DHT22;1372;47.956;7.830;2023-07-24T05:52:48;20.00;99.90
2729;DHT22;1372;47.956;7.830;2023-07-24T05:55:17;20.10;99.90
2729;DHT22;1372;47.956;7.830;2023-07-24T05:57:46;20.10;99.90
2729;DHT22;1372;47.956;7.830;2023-07-24T06:00:18;20.10;99.90
2729;DHT22;1372;47.956;7.830;2023-07-24T06:02:47;20.20;99.90
2729;DHT22;1372;47.956;7.830;2023-07-24T06:05:16;20.20;99.90
2729;DHT22;1372;47.956;7.830;2023-07-24T06:07:50;20.20;99.90
2729;DHT22;1372;47.956;7.830;2023-07-24T06:10:20;20.30;99.90
2729;DHT22;1372;47.956;7.830;2023-07-24T06:12:49;20.30;99.90
2729;DHT22;1372;47.956;7.830;2023-07-24T06:15:18;20.40;99.90
2729;DHT22;1372;47.956;7.830;2023-07-24T06:17:47;20.40;99.90
2729;DHT22;1372;47.956;7.830;2023-07-24T06:20:19;20.50;99.90
2729;DHT22;1372;47.956;7.830;2023-07-24T06:22:52;20.60;99.90
2729;DHT22;1372;47.956;7.830;2023-07-24T06:25:20;20.60;99.90
2729;DHT22;1372;47.956;7.830;2023-07-24T06:27:49;20.70;99.90
2729;DHT22;1372;47.956;7.830;2023-07-24T06:30:18;20.80;99.90
2729;DHT22;1372;47.956;7.830;2023-07-24T06:32:47;20.80;99.90
2729;DHT22;1372;47.956;7.830;2023-07-24T06:35:18;20.90;99.90
2729;DHT22;1372;47.956;7.830;2023-07-24T06:37:47;20.90;99.90
2729;DHT22;1372;47.956;7.830;2023-07-24T06:40:17;21.00;99.90
2729;DHT22;1372;47.956;7.830;2023-07-24T06:42:46;21.00;99.90
2729;DHT22;1372;47.956;7.830;2023-07-24T06:45:15;21.10;99.90
2729;DHT22;1372;47.956;7.830;2023-07-24T06:47:45;21.20;99.90
2729;DHT22;1372;47.956;7.830;2023-07-24T06:50:14;21.30;99.90
2729;DHT22;1372;47.956;7.830;2023-07-24T06:52:43;21.30;99.90
2729;DHT22;1372;47.956;7.830;2023-07-24T06:55:12;21.30;99.90
2729;DHT22;1372;47.956;7.830;2023-07-24T06:57:43;21.40;99.90
2729;DHT22;1372;47.956;7.830;2023-07-24T07:00:12;21.40;99.90
2729;DHT22;1372;47.956;7.830;2023-07-24T07:02:42;21.40;99.90
2729;DHT22;1372;47.956;7.830;2023-07-24T07:05:11;21.40;99.90
2729;DHT22;1372;47.956;7.830;2023-07-24T07:07:40;21.50;99.90
2729;DHT22;1372;47.956;7.830;2023-07-24T07:10:11;21.50;99.90
2729;DHT22;1372;47.956;7.830;2023-07-24T07:12:40;21.60;99.90
2729;DHT22;1372;47.956;7.830;2023-07-24T07:15:11;21.70;99.90
2729;DHT22;1372;47.956;7.830;2023-07-24T07:17:40;21.80;99.90
2729;DHT22;1372;47.956;7.830;2023-07-24T07:20:09;21.90;99.90
2729;DHT22;1372;47.956;7.830;2023-07-24T07:22:38;22.00;99.90
2729;DHT22;1372;47.956;7.830;2023-07-24T07:25:08;22.10;99.90
2729;DHT22;1372;47.956;7.830;2023-07-24T07:27:37;22.10;99.90
2729;DHT22;1372;47.956;7.830;2023-07-24T07:30:06;22.10;99.90
2729;DHT22;1372;47.956;7.830;2023-07-24T07:32:37;22.10;99.90
2729;DHT22;1372;47.956;7.830;2023-07-24T07:35:07;22.10;99.90
2729;DHT22;1372;47.956;7.830;2023-07-24T07:37:36;22.00;99.90
2729;DHT22;1372;47.956;7.830;2023-07-24T07:40:06;21.80;99.90
2729;DHT22;1372;47.956;7.830;2023-07-24T07:42:36;21.40;99.90
2729;DHT22;1372;47.956;7.830;2023-07-24T07:45:07;21.30;99.90
2729;DHT22;1372;47.956;7.830;2023-07-24T07:47:38;21.10;99.90
2729;DHT22;1372;47.956;7.830;2023-07-24T07:50:08;21.00;99.90
2729;DHT22;1372;47.956;7.830;2023-07-24T07:52:37;20.90;99.90
2729;DHT22;1372;47.956;7.830;2023-07-24T07:55:07;20.80;99.90
2729;DHT22;1372;47.956;7.830;2023-07-24T07:57:38;20.60;99.90
2729;DHT22;1372;47.956;7.830;2023-07-24T08:00:09;20.60;99.90
2729;DHT22;1372;47.956;7.830;2023-07-24T08:02:40;20.60;99.90
2729;DHT22;1372;47.956;7.830;2023-07-24T08:05:10;20.50;99.90
2729;DHT22;1372;47.956;7.830;2023-07-24T08:07:46;20.40;99.90
2729;DHT22;1372;47.956;7.830;2023-07-24T08:10:16;20.20;99.90
2729;DHT22;1372;47.956;7.830;2023-07-24T08:12:45;20.10;99.90
2729;DHT22;1372;47.956;7.830;2023-07-24T08:15:14;20.00;99.90
2729;DHT22;1372;47.956;7.830;2023-07-24T08:17:46;20.00;99.90
2729;DHT22;1372;47.956;7.830;2023-07-24T08:20:15;20.00;99.90
2729;DHT22;1372;47.956;7.830;2023-07-24T08:22:44;20.10;99.90
2729;DHT22;1372;47.956;7.830;2023-07-24T08:25:14;20.20;99.90
2729;DHT22;1372;47.956;7.830;2023-07-24T08:27:43;20.30;99.90
2729;DHT22;1372;47.956;7.830;2023-07-24T08:30:30;20.30;99.90
2729;DHT22;1372;47.956;7.830;2023-07-24T08:33:03;20.40;99.90
2729;DHT22;1372;47.956;7.830;2023-07-24T08:35:32;20.40;99.90
2729;DHT22;1372;47.956;7.830;2023-07-24T08:38:01;20.50;99.90
2729;DHT22;1372;47.956;7.830;2023-07-24T08:40:30;20.60;99.90
2729;DHT22;1372;47.956;7.830;2023-07-24T08:43:00;20.60;99.90
2729;DHT22;1372;47.956;7.830;2023-07-24T08:45:30;20.50;99.90
2729;DHT22;1372;47.956;7.830;2023-07-24T08:48:03;20.40;99.90
2729;DHT22;1372;47.956;7.830;2023-07-24T08:50:33;20.40;99.90
2729;DHT22;1372;47.956;7.830;2023-07-24T08:53:06;20.40;99.90
2729;DHT22;1372;47.956;7.830;2023-07-24T08:55:35;20.30;99.90
2729;DHT22;1372;47.956;7.830;2023-07-24T08:58:04;20.40;99.90
2729;DHT22;1372;47.956;7.830;2023-07-24T09:00:34;20.30;99.90
2729;DHT22;1372;47.956;7.830;2023-07-24T09:03:05;20.30;99.90
2729;DHT22;1372;47.956;7.830;2023-07-24T09:05:35;20.20;99.90
2729;DHT22;1372;47.956;7.830;2023-07-24T09:08:04;20.10;99.90
2729;DHT22;1372;47.956;7.830;2023-07-24T09:10:34;20.10;99.90
2729;DHT22;1372;47.956;7.830;2023-07-24T09:13:03;20.20;99.90
2729;DHT22;1372;47.956;7.830;2023-07-24T09:15:40;20.10;99.90
2729;DHT22;1372;47.956;7.830;2023-07-24T09:18:11;20.00;99.90
2729;DHT22;1372;47.956;7.830;2023-07-24T09:20:41;19.90;99.90
2729;DHT22;1372;47.956;7.830;2023-07-24T09:23:13;19.80;99.90
2729;DHT22;1372;47.956;7.830;2023-07-24T09:25:46;19.80;99.90
2729;DHT22;1372;47.956;7.830;2023-07-24T09:28:16;19.50;99.90
2729;DHT22;1372;47.956;7.830;2023-07-24T09:30:52;19.40;99.90
2729;DHT22;1372;47.956;7.830;2023-07-24T09:33:34;19.20;99.90
2729;DHT22;1372;47.956;7.830;2023-07-24T09:36:05;19.00;99.90
2729;DHT22;1372;47.956;7.830;2023-07-24T09:38:36;19.00;99.90
2729;DHT22;1372;47.956;7.830;2023-07-24T09:41:06;18.90;99.90
2729;DHT22;1372;47.956;7.830;2023-07-24T09:43:36;18.90;99.90
2729;DHT22;1372;47.956;7.830;2023-07-24T09:46:08;18.90;99.90
2729;DHT22;1372;47.956;7.830;2023-07-24T09:48:39;18.90;99.90
2729;DHT22;1372;47.956;7.830;2023-07-24T09:51:29;18.80;99.90
2729;DHT22;1372;47.956;7.830;2023-07-24T09:54:06;18.80;99.90
2729;DHT22;1372;47.956;7.830;2023-07-24T09:56:39;18.70;99.90
2729;DHT22;1372;47.956;7.830;2023-07-24T09:59:18;18.60;99.90
2729;DHT22;1372;47.956;7.830;2023-07-24T10:01:49;18.70;99.90
2729;DHT22;1372;47.956;7.830;2023-07-24T10:04:20;18.60;99.90
2729;DHT22;1372;47.956;7.830;2023-07-24T10:06:52;18.50;99.90
2729;DHT22;1372;47.956;7.830;2023-07-24T10:09:22;18.50;99.90
2729;DHT22;1372;47.956;7.830;2023-07-24T10:11:53;18.50;99.90
2729;DHT22;1372;47.956;7.830;2023-07-24T10:14:23;18.50;99.90
2729;DHT22;1372;47.956;7.830;2023-07-24T10:16:55;18.50;99.90
2729;DHT22;1372;47.956;7.830;2023-07-24T10:19:35;18.40;99.90
2729;DHT22;1372;47.956;7.830;2023-07-24T10:22:06;18.40;99.90
2729;DHT22;1372;47.956;7.830;2023-07-24T10:24:35;18.50;99.90
2729;DHT22;1372;47.956;7.830;2023-07-24T10:27:09;18.50;99.90
2729;DHT22;1372;47.956;7.830;2023-07-24T10:29:38;18.40;99.90
2729;DHT22;1372;47.956;7.830;2023-07-24T10:32:18;18.50;99.90
2729;DHT22;1372;47.956;7.830;2023-07-24T10:34:58;18.60;99.90
2729;DHT22;1372;47.956;7.830;2023-07-24T10:37:35;18.70;99.90
2729;DHT22;1372;47.956;7.830;2023-07-24T10:40:06;18.90;99.90
2729;DHT22;1372;47.956;7.830;2023-07-24T10:42:59;19.10;99.90
2729;DHT22;1372;47.956;7.830;2023-07-24T10:45:39;19.30;99.90
2729;DHT22;1372;47.956;7.830;2023-07-24T10:48:09;19.40;99.90
2729;DHT22;1372;47.956;7.830;2023-07-24T10:50:42;19.50;99.90
2729;DHT22;1372;47.956;7.830;2023-07-24T10:53:14;19.70;99.90
2729;DHT22;1372;47.956;7.830;2023-07-24T10:55:44;19.80;99.90
2729;DHT22;1372;47.956;7.830;2023-07-24T10:58:14;19.80;99.90
2729;DHT22;1372;47.956;7.830;2023-07-24T11:00:44;19.90;99.90
2729;DHT22;1372;47.956;7.830;2023-07-24T11:03:16;20.00;99.90
2729;DHT22;1372;47.956;7.830;2023-07-24T11:05:47;20.20;99.90
2729;DHT22;1372;47.956;7.830;2023-07-24T11:08:17;20.40;99.90
2729;DHT22;1372;47.956;7.830;2023-07-24T11:10:49;20.40;99.90
2729;DHT22;1372;47.956;7.830;2023-07-24T11:13:20;20.50;99.90
2729;DHT22;1372;47.956;7.830;2023-07-24T11:15:51;20.60;99.90
2729;DHT22;1372;47.956;7.830;2023-07-24T11:18:21;20.70;99.90
2729;DHT22;1372;47.956;7.830;2023-07-24T11:21:04;20.70;99.90
2729;DHT22;1372;47.956;7.830;2023-07-24T11:23:34;20.80;99.90
2729;DHT22;1372;47.956;7.830;2023-07-24T11:26:05;20.70;99.90
2729;DHT22;1372;47.956;7.830;2023-07-24T11:28:39;20.70;99.90
2729;DHT22;1372;47.956;7.830;2023-07-24T11:31:08;20.50;99.90
2729;DHT22;1372;47.956;7.830;2023-07-24T11:33:39;20.50;99.90
2729;DHT22;1372;47.956;7.830;2023-07-24T11:36:10;20.40;99.90
2729;DHT22;1372;47.956;7.830;2023-07-24T11:38:40;20.40;99.90
2729;DHT22;1372;47.956;7.830;2023-07-24T11:41:13;20.40;99.90
2729;DHT22;1372;47.956;7.830;2023-07-24T11:43:46;20.30;99.90
2729;DHT22;1372;47.956;7.830;2023-07-24T11:46:23;20.30;99.90
2729;DHT22;1372;47.956;7.830;2023-07-24T11:48:53;20.30;99.90
2729;DHT22;1372;47.956;7.830;2023-07-24T11:51:26;20.40;99.90
2729;DHT22;1372;47.956;7.830;2023-07-24T11:54:07;20.40;99.90
2729;DHT22;1372;47.956;7.830;2023-07-24T11:56:38;20.30;99.90
2729;DHT22;1372;47.956;7.830;2023-07-24T11:59:11;20.30;99.90
2729;DHT22;1372;47.956;7.830;2023-07-24T12:01:40;20.30;99.90
2729;DHT22;1372;47.956;7.830;2023-07-24T12:04:10;20.20;99.90
2729;DHT22;1372;47.956;7.830;2023-07-24T12:06:43;20.20;99.90
2729;DHT22;1372;47.956;7.830;2023-07-24T12:09:15;20.20;99.90
2729;DHT22;1372;47.956;7.830;2023-07-24T12:11:44;20.10;99.90
2729;DHT22;1372;47.956;7.830;2023-07-24T12:14:14;20.10;99.90
2729;DHT22;1372;47.956;7.830;2023-07-24T12:16:43;20.00;99.90
2729;DHT22;1372;47.956;7.830;2023-07-24T12:19:12;20.10;99.90
2729;DHT22;1372;47.956;7.830;2023-07-24T12:21:43;20.00;99.90
2729;DHT22;1372;47.956;7.830;2023-07-24T12:24:12;19.90;99.90
2729;DHT22;1372;47.956;7.830;2023-07-24T12:26:44;19.90;99.90
2729;DHT22;1372;47.956;7.830;2023-07-24T12:29:13;19.80;99.90
2729;DHT22;1372;47.956;7.830;2023-07-24T12:31:42;19.80;99.90
2729;DHT22;1372;47.956;7.830;2023-07-24T12:34:11;19.80;99.90
2729;DHT22;1372;47.956;7.830;2023-07-24T12:36:40;19.80;99.90
2729;DHT22;1372;47.956;7.830;2023-07-24T12:39:11;19.80;99.90
2729;DHT22;1372;47.956;7.830;2023-07-24T12:41:40;19.70;99.90
2729;DHT22;1372;47.956;7.830;2023-07-24T12:44:09;19.60;99.90
2729;DHT22;1372;47.956;7.830;2023-07-24T12:46:38;19.60;99.90
2729;DHT22;1372;47.956;7.830;2023-07-24T12:49:07;19.50;99.90
2729;DHT22;1372;47.956;7.830;2023-07-24T12:51:36;19.50;99.90
2729;DHT22;1372;47.956;7.830;2023-07-24T12:54:08;19.50;99.90
2729;DHT22;1372;47.956;7.830;2023-07-24T12:56:51;19.40;99.90
2729;DHT22;1372;47.956;7.830;2023-07-24T12:59:20;19.40;99.90
2729;DHT22;1372;47.956;7.830;2023-07-24T13:01:49;19.30;99.90
2729;DHT22;1372;47.956;7.830;2023-07-24T13:04:19;19.30;99.90
2729;DHT22;1372;47.956;7.830;2023-07-24T13:06:48;19.30;99.90
2729;DHT22;1372;47.956;7.830;2023-07-24T13:09:19;19.40;99.90
2729;DHT22;1372;47.956;7.830;2023-07-24T13:11:48;19.40;99.90
2729;DHT22;1372;47.956;7.830;2023-07-24T13:14:19;19.30;99.90
2729;DHT22;1372;47.956;7.830;2023-07-24T13:16:48;19.30;99.90
2729;DHT22;1372;47.956;7.830;2023-07-24T13:19:19;19.30;99.90
2729;DHT22;1372;47.956;7.830;2023-07-24T13:21:51;19.40;99.90
2729;DHT22;1372;47.956;7.830;2023-07-24T13:24:21;19.40;99.90
2729;DHT22;1372;47.956;7.830;2023-07-24T13:26:53;19.30;99.90
2729;DHT22;1372;47.956;7.830;2023-07-24T13:29:24;19.20;99.90
2729;DHT22;1372;47.956;7.830;2023-07-24T13:31:54;19.40;99.90
2729;DHT22;1372;47.956;7.830;2023-07-24T13:34:24;19.40;99.90
2729;DHT22;1372;47.956;7.830;2023-07-24T13:36:53;19.50;99.90
2729;DHT22;1372;47.956;7.830;2023-07-24T13:39:24;19.40;99.90
2729;DHT22;1372;47.956;7.830;2023-07-24T13:41:55;19.40;99.90
2729;DHT22;1372;47.956;7.830;2023-07-24T13:44:24;19.30;99.90
2729;DHT22;1372;47.956;7.830;2023-07-24T13:46:53;19.30;99.90
2729;DHT22;1372;47.956;7.830;2023-07-24T13:49:23;19.20;99.90
2729;DHT22;1372;47.956;7.830;2023-07-24T13:51:54;19.10;99.90
2729;DHT22;1372;47.956;7.830;2023-07-24T13:54:24;19.20;99.90
2729;DHT22;1372;47.956;7.830;2023-07-24T13:56:55;19.20;99.90
2729;DHT22;1372;47.956;7.830;2023-07-24T13:59:24;19.30;99.90
2729;DHT22;1372;47.956;7.830;2023-07-24T14:01:54;19.30;99.90
2729;DHT22;1372;47.956;7.830;2023-07-24T14:04:25;19.40;99.90
2729;DHT22;1372;47.956;7.830;2023-07-24T14:06:54;19.50;99.90
2729;DHT22;1372;47.956;7.830;2023-07-24T14:09:25;19.60;99.90
2729;DHT22;1372;47.956;7.830;2023-07-24T14:11:54;19.60;99.90
2729;DHT22;1372;47.956;7.830;2023-07-24T14:14:24;19.60;99.90
2729;DHT22;1372;47.956;7.830;2023-07-24T14:16:53;19.50;99.90
2729;DHT22;1372;47.956;7.830;2023-07-24T14:19:22;19.60;99.90
2729;DHT22;1372;47.956;7.830;2023-07-24T14:21:51;19.60;99.90
2729;DHT22;1372;47.956;7.830;2023-07-24T14:24:20;19.50;99.90
2729;DHT22;1372;47.956;7.830;2023-07-24T14:26:51;19.50;99.90
2729;DHT22;1372;47.956;7.830;2023-07-24T14:29:20;19.50;99.90
2729;DHT22;1372;47.956;7.830;2023-07-24T14:31:51;19.60;99.90
2729;DHT22;1372;47.956;7.830;2023-07-24T14:34:21;19.70;99.90
2729;DHT22;1372;47.956;7.830;2023-07-24T14:36:50;19.70;99.90
2729;DHT22;1372;47.956;7.830;2023-07-24T14:39:20;19.90;99.90
2729;DHT22;1372;47.956;7.830;2023-07-24T14:41:50;20.00;99.90
2729;DHT22;1372;47.956;7.830;2023-07-24T14:44:19;20.10;99.90
2729;DHT22;1372;47.956;7.830;2023-07-24T14:46:49;20.20;99.90
2729;DHT22;1372;47.956;7.830;2023-07-24T14:49:18;20.20;99.90
2729;DHT22;1372;47.956;7.830;2023-07-24T14:51:47;20.30;99.90
2729;DHT22;1372;47.956;7.830;2023-07-24T14:54:16;20.50;99.90
2729;DHT22;1372;47.956;7.830;2023-07-24T14:56:47;20.70;99.90
2729;DHT22;1372;47.956;7.830;2023-07-24T14:59:26;20.70;99.90
2729;DHT22;1372;47.956;7.830;2023-07-24T15:01:56;20.70;99.90
2729;DHT22;1372;47.956;7.830;2023-07-24T15:04:25;20.60;99.90
2729;DHT22;1372;47.956;7.830;2023-07-24T15:06:54;20.50;99.90
2729;DHT22;1372;47.956;7.830;2023-07-24T15:09:23;20.40;99.90
2729;DHT22;1372;47.956;7.830;2023-07-24T15:11:52;20.30;99.90
2729;DHT22;1372;47.956;7.830;2023-07-24T15:14:22;20.30;99.90
2729;DHT22;1372;47.956;7.830;2023-07-24T15:16:53;20.20;99.90
2729;DHT22;1372;47.956;7.830;2023-07-24T15:19:25;20.20;99.90
2729;DHT22;1372;47.956;7.830;2023-07-24T15:21:54;20.10;99.90
2729;DHT22;1372;47.956;7.830;2023-07-24T15:24:25;20.10;99.90
2729;DHT22;1372;47.956;7.830;2023-07-24T15:26:56;20.10;99.90
2729;DHT22;1372;47.956;7.830;2023-07-24T15:29:25;20.10;99.90
2729;DHT22;1372;47.956;7.830;2023-07-24T15:31:55;20.10;99.90
2729;DHT22;1372;47.956;7.830;2023-07-24T15:34:24;20.30;99.90
2729;DHT22;1372;47.956;7.830;2023-07-24T15:36:53;20.40;99.90
2729;DHT22;1372;47.956;7.830;2023-07-24T15:39:22;20.70;99.90
2729;DHT22;1372;47.956;7.830;2023-07-24T15:41:51;21.00;99.90
2729;DHT22;1372;47.956;7.830;2023-07-24T15:44:22;21.30;99.90
2729;DHT22;1372;47.956;7.830;2023-07-24T15:46:51;21.70;99.90
2729;DHT22;1372;47.956;7.830;2023-07-24T15:49:21;21.90;99.90
2729;DHT22;1372;47.956;7.830;2023-07-24T15:51:53;21.90;99.90
2729;DHT22;1372;47.956;7.830;2023-07-24T15:54:23;22.00;99.90
2729;DHT22;1372;47.956;7.830;2023-07-24T15:56:52;22.10;99.90
2729;DHT22;1372;47.956;7.830;2023-07-24T15:59:21;22.40;99.90
2729;DHT22;1372;47.956;7.830;2023-07-24T16:01:50;22.40;99.90
2729;DHT22;1372;47.956;7.830;2023-07-24T16:04:21;22.40;99.90
2729;DHT22;1372;47.956;7.830;2023-07-24T16:06:50;22.40;99.90
2729;DHT22;1372;47.956;7.830;2023-07-24T16:09:20;22.40;99.90
2729;DHT22;1372;47.956;7.830;2023-07-24T16:11:50;22.40;99.90
2729;DHT22;1372;47.956;7.830;2023-07-24T16:14:20;22.50;99.90
2729;DHT22;1372;47.956;7.830;2023-07-24T16:16:50;22.60;99.90
2729;DHT22;1372;47.956;7.830;2023-07-24T16:19:21;22.70;99.90
2729;DHT22;1372;47.956;7.830;2023-07-24T16:21:51;22.80;99.90
2729;DHT22;1372;47.956;7.830;2023-07-24T16:24:23;22.90;99.90